sensor_id;sensor_type;location;lat;lon;timestamp;P1;durP1;ratioP1;P2;durP2;ratioP2
60032;SDS011;45905;50.570;10.428;2023-02-28T00:01:32;0.80;;;0.80;;
60032;SDS011;45905;50.570;10.428;2023-02-28T00:04:00;0.63;;;0.60;;
60032;SDS011;45905;50.570;10.428;2023-02-28T00:06:28;0.50;;;0.40;;
60032;SDS011;45905;50.570;10.428;2023-02-28T00:08:55;0.80;;;0.80;;
60032;SDS011;45905;50.570;10.428;2023-02-28T00:11:23;2.10;;;0.70;;
60032;SDS011;45905;50.570;10.428;2023-02-28T00:13:50;0.60;;;0.50;;
60032;SDS011;45905;50.570;10.428;2023-02-28T00:16:18;0.50;;;0.30;;
60032;SDS011;45905;50.570;10.428;2023-02-28T00:18:48;0.60;;;0.50;;
60032;SDS011;45905;50.570;10.428;2023-02-28T00:21:16;0.80;;;0.70;;
60032;SDS011;45905;50.570;10.428;2023-02-28T00:23:44;1.47;;;0.90;;
60032;SDS011;45905;50.570;10.428;2023-02-28T00:26:12;0.93;;;0.83;;
60032;SDS011;45905;50.570;10.428;2023-02-28T00:28:43;0.50;;;0.37;;
60032;SDS011;45905;50.570;10.428;2023-02-28T00:31:10;0.50;;;0.30;;
60032;SDS011;45905;50.570;10.428;2023-02-28T00:33:37;1.37;;;0.70;;
60032;SDS011;45905;50.570;10.428;2023-02-28T00:36:05;0.50;;;0.30;;
60032;SDS011;45905;50.570;10.428;2023-02-28T00:38:36;0.60;;;0.40;;
60032;SDS011;45905;50.570;10.428;2023-02-28T00:41:04;0.70;;;0.60;;
60032;SDS011;45905;50.570;10.428;2023-02-28T00:43:34;7.50;;;1.27;;
60032;SDS011;45905;50.570;10.428;2023-02-28T00:46:03;0.50;;;0.33;;
60032;SDS011;45905;50.570;10.428;2023-02-28T00:48:31;0.70;;;0.53;;
60032;SDS011;45905;50.570;10.428;2023-02-28T00:50:59;1.00;;;0.67;;
60032;SDS011;45905;50.570;10.428;2023-02-28T00:53:26;0.60;;;0.50;;
60032;SDS011;45905;50.570;10.428;2023-02-28T00:55:56;0.83;;;0.50;;
60032;SDS011;45905;50.570;10.428;2023-02-28T00:58:24;0.60;;;0.50;;
60032;SDS011;45905;50.570;10.428;2023-02-28T01:00:52;0.50;;;0.40;;
60032;SDS011;45905;50.570;10.428;2023-02-28T01:03:20;0.60;;;0.50;;
60032;SDS011;45905;50.570;10.428;2023-02-28T01:05:49;1.00;;;0.90;;
60032;SDS011;45905;50.570;10.428;2023-02-28T01:08:16;1.00;;;0.70;;
60032;SDS011;45905;50.570;10.428;2023-02-28T01:10:43;1.07;;;0.97;;
60032;SDS011;45905;50.570;10.428;2023-02-28T01:13:11;0.60;;;0.50;;
60032;SDS011;45905;50.570;10.428;2023-02-28T01:15:48;0.50;;;0.30;;
60032;SDS011;45905;50.570;10.428;2023-02-28T01:18:18;0.70;;;0.57;;
60032;SDS011;45905;50.570;10.428;2023-02-28T01:20:47;0.50;;;0.30;;
60032;SDS011;45905;50.570;10.428;2023-02-28T01:23:15;1.63;;;1.17;;
60032;SDS011;45905;50.570;10.428;2023-02-28T01:25:42;0.60;;;0.50;;
60032;SDS011;45905;50.570;10.428;2023-02-28T01:28:09;0.87;;;0.70;;
60032;SDS011;45905;50.570;10.428;2023-02-28T01:30:36;0.50;;;0.30;;
60032;SDS011;45905;50.570;10.428;2023-02-28T01:33:05;0.60;;;0.47;;
60032;SDS011;45905;50.570;10.428;2023-02-28T01:35:33;2.10;;;2.00;;
60032;SDS011;45905;50.570;10.428;2023-02-28T01:38:02;1.35;;;0.70;;
60032;SDS011;45905;50.570;10.428;2023-02-28T01:40:46;0.60;;;0.50;;
60032;SDS011;45905;50.570;10.428;2023-02-28T01:43:26;0.60;;;0.60;;
60032;SDS011;45905;50.570;10.428;2023-02-28T01:45:57;0.97;;;0.67;;
60032;SDS011;45905;50.570;10.428;2023-02-28T01:48:27;3.40;;;0.83;;
60032;SDS011;45905;50.570;10.428;2023-02-28T01:51:01;0.60;;;0.50;;
60032;SDS011;45905;50.570;10.428;2023-02-28T01:53:39;1.33;;;1.23;;
60032;SDS011;45905;50.570;10.428;2023-02-28T01:56:19;0.60;;;0.50;;
60032;SDS011;45905;50.570;10.428;2023-02-28T01:58:53;0.70;;;0.70;;
60032;SDS011;45905;50.570;10.428;2023-02-28T02:01:22;0.70;;;0.70;;
60032;SDS011;45905;50.570;10.428;2023-02-28T02:03:54;0.60;;;0.60;;
60032;SDS011;45905;50.570;10.428;2023-02-28T02:06:29;1.65;;;1.23;;
60032;SDS011;45905;50.570;10.428;2023-02-28T02:09:16;0.60;;;0.40;;
60032;SDS011;45905;50.570;10.428;2023-02-28T02:11:43;0.60;;;0.50;;
60032;SDS011;45905;50.570;10.428;2023-02-28T02:20:04;0.70;;;0.50;;
60032;SDS011;45905;50.570;10.428;2023-02-28T02:37:52;1.03;;;0.70;;
60032;SDS011;45905;50.570;10.428;2023-02-28T02:40:48;0.90;;;0.80;;
60032;SDS011;45905;50.570;10.428;2023-02-28T02:43:34;0.63;;;0.43;;
60032;SDS011;45905;50.570;10.428;2023-02-28T02:46:10;0.73;;;0.70;;
60032;SDS011;45905;50.570;10.428;2023-02-28T02:48:46;1.90;;;1.00;;
60032;SDS011;45905;50.570;10.428;2023-02-28T02:51:16;0.80;;;0.67;;
60032;SDS011;45905;50.570;10.428;2023-02-28T02:53:49;0.50;;;0.40;;
60032;SDS011;45905;50.570;10.428;2023-02-28T02:56:34;1.50;;;1.07;;
60032;SDS011;45905;50.570;10.428;2023-02-28T02:59:05;0.50;;;0.30;;
60032;SDS011;45905;50.570;10.428;2023-02-28T03:01:39;0.53;;;0.40;;
60032;SDS011;45905;50.570;10.428;2023-02-28T03:04:10;0.50;;;0.40;;
60032;SDS011;45905;50.570;10.428;2023-02-28T03:06:43;1.17;;;0.57;;
60032;SDS011;45905;50.570;10.428;2023-02-28T03:09:10;0.77;;;0.60;;
60032;SDS011;45905;50.570;10.428;2023-02-28T03:11:38;0.87;;;0.50;;
60032;SDS011;45905;50.570;10.428;2023-02-28T03:19:55;0.70;;;0.50;;
60032;SDS011;45905;50.570;10.428;2023-02-28T03:25:33;0.60;;;0.40;;
60032;SDS011;45905;50.570;10.428;2023-02-28T03:28:35;0.60;;;0.50;;
60032;SDS011;45905;50.570;10.428;2023-02-28T03:31:20;0.67;;;0.50;;
60032;SDS011;45905;50.570;10.428;2023-02-28T03:33:59;0.60;;;0.40;;
60032;SDS011;45905;50.570;10.428;2023-02-28T03:36:39;1.00;;;0.90;;
60032;SDS011;45905;50.570;10.428;2023-02-28T03:39:15;0.70;;;0.53;;
60032;SDS011;45905;50.570;10.428;2023-02-28T03:41:51;1.73;;;0.87;;
60032;SDS011;45905;50.570;10.428;2023-02-28T03:44:35;2.83;;;2.57;;
60032;SDS011;45905;50.570;10.428;2023-02-28T03:52:34;1.23;;;0.97;;
60032;SDS011;45905;50.570;10.428;2023-02-28T03:55:12;0.93;;;0.93;;
60032;SDS011;45905;50.570;10.428;2023-02-28T04:00:49;1.80;;;1.03;;
60032;SDS011;45905;50.570;10.428;2023-02-28T04:03:35;0.57;;;0.43;;
60032;SDS011;45905;50.570;10.428;2023-02-28T04:06:04;1.53;;;0.80;;
60032;SDS011;45905;50.570;10.428;2023-02-28T04:08:39;1.10;;;1.00;;
60032;SDS011;45905;50.570;10.428;2023-02-28T04:11:07;0.60;;;0.50;;
60032;SDS011;45905;50.570;10.428;2023-02-28T04:13:59;2.63;;;1.03;;
60032;SDS011;45905;50.570;10.428;2023-02-28T04:16:26;2.00;;;1.00;;
60032;SDS011;45905;50.570;10.428;2023-02-28T04:19:02;0.50;;;0.40;;
60032;SDS011;45905;50.570;10.428;2023-02-28T04:21:32;0.60;;;0.60;;
60032;SDS011;45905;50.570;10.428;2023-02-28T04:24:09;0.70;;;0.55;;
60032;SDS011;45905;50.570;10.428;2023-02-28T04:26:47;1.10;;;0.67;;
60032;SDS011;45905;50.570;10.428;2023-02-28T04:29:18;0.60;;;0.50;;
60032;SDS011;45905;50.570;10.428;2023-02-28T04:31:49;0.60;;;0.57;;
60032;SDS011;45905;50.570;10.428;2023-02-28T04:34:16;0.60;;;0.50;;
60032;SDS011;45905;50.570;10.428;2023-02-28T04:36:45;0.60;;;0.43;;
60032;SDS011;45905;50.570;10.428;2023-02-28T04:39:12;0.70;;;0.60;;
60032;SDS011;45905;50.570;10.428;2023-02-28T04:41:39;0.50;;;0.30;;
60032;SDS011;45905;50.570;10.428;2023-02-28T04:44:06;0.75;;;0.75;;
60032;SDS011;45905;50.570;10.428;2023-02-28T04:46:34;0.95;;;0.70;;
60032;SDS011;45905;50.570;10.428;2023-02-28T04:49:01;1.13;;;1.02;;
60032;SDS011;45905;50.570;10.428;2023-02-28T04:51:29;0.60;;;0.40;;
60032;SDS011;45905;50.570;10.428;2023-02-28T04:53:57;1.10;;;1.08;;
60032;SDS011;45905;50.570;10.428;2023-02-28T04:56:24;1.00;;;0.85;;
60032;SDS011;45905;50.570;10.428;2023-02-28T04:58:51;1.88;;;0.90;;
60032;SDS011;45905;50.570;10.428;2023-02-28T05:01:26;0.50;;;0.30;;
60032;SDS011;45905;50.570;10.428;2023-02-28T05:04:01;0.60;;;0.50;;
60032;SDS011;45905;50.570;10.428;2023-02-28T05:06:31;2.65;;;0.85;;
60032;SDS011;45905;50.570;10.428;2023-02-28T05:08:59;3.83;;;2.05;;
60032;SDS011;45905;50.570;10.428;2023-02-28T05:11:28;0.90;;;0.88;;
60032;SDS011;45905;50.570;10.428;2023-02-28T05:14:02;1.63;;;0.77;;
60032;SDS011;45905;50.570;10.428;2023-02-28T05:16:40;0.60;;;0.55;;
60032;SDS011;45905;50.570;10.428;2023-02-28T05:19:07;1.10;;;0.93;;
60032;SDS011;45905;50.570;10.428;2023-02-28T05:21:35;0.57;;;0.45;;
60032;SDS011;45905;50.570;10.428;2023-02-28T05:24:17;0.50;;;0.40;;
60032;SDS011;45905;50.570;10.428;2023-02-28T05:26:49;1.25;;;0.98;;
60032;SDS011;45905;50.570;10.428;2023-02-28T05:29:19;1.08;;;0.98;;
60032;SDS011;45905;50.570;10.428;2023-02-28T05:31:47;1.20;;;1.10;;
60032;SDS011;45905;50.570;10.428;2023-02-28T05:34:15;0.50;;;0.30;;
60032;SDS011;45905;50.570;10.428;2023-02-28T05:36:42;0.80;;;0.80;;
60032;SDS011;45905;50.570;10.428;2023-02-28T05:39:10;5.65;;;1.02;;
60032;SDS011;45905;50.570;10.428;2023-02-28T05:41:40;4.20;;;2.55;;
60032;SDS011;45905;50.570;10.428;2023-02-28T05:44:09;0.98;;;0.88;;
60032;SDS011;45905;50.570;10.428;2023-02-28T05:46:36;0.85;;;0.85;;
60032;SDS011;45905;50.570;10.428;2023-02-28T05:49:04;1.65;;;1.55;;
60032;SDS011;45905;50.570;10.428;2023-02-28T05:51:32;0.80;;;0.50;;
60032;SDS011;45905;50.570;10.428;2023-02-28T05:54:00;0.65;;;0.65;;
60032;SDS011;45905;50.570;10.428;2023-02-28T05:56:28;1.40;;;1.30;;
60032;SDS011;45905;50.570;10.428;2023-02-28T05:58:55;0.60;;;0.52;;
60032;SDS011;45905;50.570;10.428;2023-02-28T06:01:24;1.20;;;1.10;;
60032;SDS011;45905;50.570;10.428;2023-02-28T06:04:04;1.23;;;1.13;;
60032;SDS011;45905;50.570;10.428;2023-02-28T06:06:39;4.18;;;1.50;;
60032;SDS011;45905;50.570;10.428;2023-02-28T06:09:06;1.60;;;1.50;;
60032;SDS011;45905;50.570;10.428;2023-02-28T06:11:34;3.83;;;1.05;;
60032;SDS011;45905;50.570;10.428;2023-02-28T06:14:01;0.60;;;0.60;;
60032;SDS011;45905;50.570;10.428;2023-02-28T06:16:31;0.60;;;0.60;;
60032;SDS011;45905;50.570;10.428;2023-02-28T06:19:01;0.50;;;0.40;;
60032;SDS011;45905;50.570;10.428;2023-02-28T06:21:31;0.77;;;0.77;;
60032;SDS011;45905;50.570;10.428;2023-02-28T06:23:58;0.50;;;0.30;;
60032;SDS011;45905;50.570;10.428;2023-02-28T06:26:25;1.05;;;0.85;;
60032;SDS011;45905;50.570;10.428;2023-02-28T06:28:53;1.02;;;0.93;;
60032;SDS011;45905;50.570;10.428;2023-02-28T06:31:21;1.63;;;1.52;;
60032;SDS011;45905;50.570;10.428;2023-02-28T06:33:49;25.23;;;2.00;;
60032;SDS011;45905;50.570;10.428;2023-02-28T06:36:16;0.60;;;0.50;;
60032;SDS011;45905;50.570;10.428;2023-02-28T06:38:44;0.60;;;0.50;;
60032;SDS011;45905;50.570;10.428;2023-02-28T06:41:11;0.50;;;0.30;;
60032;SDS011;45905;50.570;10.428;2023-02-28T06:43:40;1.67;;;1.25;;
60032;SDS011;45905;50.570;10.428;2023-02-28T06:46:11;1.20;;;1.10;;
60032;SDS011;45905;50.570;10.428;2023-02-28T06:48:42;0.60;;;0.50;;
60032;SDS011;45905;50.570;10.428;2023-02-28T06:51:11;0.73;;;0.73;;
60032;SDS011;45905;50.570;10.428;2023-02-28T06:53:42;0.50;;;0.32;;
60032;SDS011;45905;50.570;10.428;2023-02-28T06:56:11;5.30;;;2.05;;
60032;SDS011;45905;50.570;10.428;2023-02-28T06:58:40;4.75;;;1.25;;
60032;SDS011;45905;50.570;10.428;2023-02-28T07:01:08;6.60;;;1.88;;
60032;SDS011;45905;50.570;10.428;2023-02-28T07:03:36;0.70;;;0.70;;
60032;SDS011;45905;50.570;10.428;2023-02-28T07:06:04;0.60;;;0.40;;
60032;SDS011;45905;50.570;10.428;2023-02-28T07:08:32;0.60;;;0.50;;
60032;SDS011;45905;50.570;10.428;2023-02-28T07:11:00;0.88;;;0.82;;
60032;SDS011;45905;50.570;10.428;2023-02-28T07:13:28;8.73;;;1.38;;
60032;SDS011;45905;50.570;10.428;2023-02-28T07:15:56;0.68;;;0.68;;
60032;SDS011;45905;50.570;10.428;2023-02-28T07:18:32;1.60;;;1.50;;
60032;SDS011;45905;50.570;10.428;2023-02-28T07:21:03;1.35;;;1.05;;
60032;SDS011;45905;50.570;10.428;2023-02-28T07:23:33;1.67;;;1.42;;
60032;SDS011;45905;50.570;10.428;2023-02-28T07:26:01;1.02;;;1.02;;
60032;SDS011;45905;50.570;10.428;2023-02-28T07:28:28;2.60;;;1.50;;
60032;SDS011;45905;50.570;10.428;2023-02-28T07:30:56;1.02;;;0.93;;
60032;SDS011;45905;50.570;10.428;2023-02-28T07:33:23;1.52;;;1.42;;
60032;SDS011;45905;50.570;10.428;2023-02-28T07:35:50;0.88;;;0.88;;
60032;SDS011;45905;50.570;10.428;2023-02-28T07:38:17;4.35;;;0.85;;
60032;SDS011;45905;50.570;10.428;2023-02-28T07:40:44;2.67;;;1.85;;
60032;SDS011;45905;50.570;10.428;2023-02-28T07:43:11;0.50;;;0.40;;
60032;SDS011;45905;50.570;10.428;2023-02-28T07:45:39;0.50;;;0.35;;
60032;SDS011;45905;50.570;10.428;2023-02-28T07:48:06;0.80;;;0.80;;
60032;SDS011;45905;50.570;10.428;2023-02-28T07:50:36;9.18;;;1.95;;
60032;SDS011;45905;50.570;10.428;2023-02-28T07:53:03;1.25;;;1.15;;
60032;SDS011;45905;50.570;10.428;2023-02-28T07:55:31;0.60;;;0.52;;
60032;SDS011;45905;50.570;10.428;2023-02-28T07:57:58;2.63;;;1.15;;
60032;SDS011;45905;50.570;10.428;2023-02-28T08:00:25;0.50;;;0.30;;
60032;SDS011;45905;50.570;10.428;2023-02-28T08:02:53;0.60;;;0.60;;
60032;SDS011;45905;50.570;10.428;2023-02-28T08:05:20;1.60;;;1.40;;
60032;SDS011;45905;50.570;10.428;2023-02-28T08:07:48;0.63;;;0.63;;
60032;SDS011;45905;50.570;10.428;2023-02-28T08:10:16;1.13;;;1.02;;
60032;SDS011;45905;50.570;10.428;2023-02-28T08:12:43;0.90;;;0.90;;
60032;SDS011;45905;50.570;10.428;2023-02-28T08:15:10;0.60;;;0.60;;
60032;SDS011;45905;50.570;10.428;2023-02-28T08:17:38;4.72;;;1.58;;
60032;SDS011;45905;50.570;10.428;2023-02-28T08:20:05;0.50;;;0.30;;
60032;SDS011;45905;50.570;10.428;2023-02-28T08:22:33;0.63;;;0.50;;
60032;SDS011;45905;50.570;10.428;2023-02-28T08:25:01;0.73;;;0.73;;
60032;SDS011;45905;50.570;10.428;2023-02-28T08:27:28;1.02;;;0.57;;
60032;SDS011;45905;50.570;10.428;2023-02-28T08:29:55;20.13;;;1.35;;
60032;SDS011;45905;50.570;10.428;2023-02-28T08:32:22;3.58;;;1.67;;
60032;SDS011;45905;50.570;10.428;2023-02-28T08:34:55;2.40;;;2.20;;
60032;SDS011;45905;50.570;10.428;2023-02-28T08:37:22;0.63;;;0.60;;
60032;SDS011;45905;50.570;10.428;2023-02-28T08:39:50;1.40;;;0.80;;
60032;SDS011;45905;50.570;10.428;2023-02-28T08:42:22;0.70;;;0.70;;
60032;SDS011;45905;50.570;10.428;2023-02-28T08:44:50;0.87;;;0.70;;
60032;SDS011;45905;50.570;10.428;2023-02-28T08:47:17;0.83;;;0.83;;
60032;SDS011;45905;50.570;10.428;2023-02-28T08:49:45;1.17;;;0.70;;
60032;SDS011;45905;50.570;10.428;2023-02-28T08:52:12;1.53;;;1.20;;
60032;SDS011;45905;50.570;10.428;2023-02-28T08:54:39;3.80;;;0.80;;
60032;SDS011;45905;50.570;10.428;2023-02-28T08:57:06;1.27;;;1.20;;
60032;SDS011;45905;50.570;10.428;2023-02-28T08:59:34;1.13;;;1.00;;
60032;SDS011;45905;50.570;10.428;2023-02-28T09:02:01;1.17;;;1.07;;
60032;SDS011;45905;50.570;10.428;2023-02-28T09:04:28;1.07;;;0.97;;
60032;SDS011;45905;50.570;10.428;2023-02-28T09:06:57;1.40;;;1.30;;
60032;SDS011;45905;50.570;10.428;2023-02-28T09:09:24;1.67;;;1.57;;
60032;SDS011;45905;50.570;10.428;2023-02-28T09:11:51;0.60;;;0.57;;
60032;SDS011;45905;50.570;10.428;2023-02-28T09:14:18;1.27;;;1.20;;
60032;SDS011;45905;50.570;10.428;2023-02-28T09:16:46;0.80;;;0.80;;
60032;SDS011;45905;50.570;10.428;2023-02-28T09:19:13;1.83;;;1.73;;
60032;SDS011;45905;50.570;10.428;2023-02-28T09:21:40;2.60;;;1.37;;
60032;SDS011;45905;50.570;10.428;2023-02-28T09:24:07;2.03;;;1.10;;
60032;SDS011;45905;50.570;10.428;2023-02-28T09:26:34;1.03;;;0.57;;
60032;SDS011;45905;50.570;10.428;2023-02-28T09:29:12;1.20;;;1.10;;
60032;SDS011;45905;50.570;10.428;2023-02-28T09:31:40;1.23;;;1.13;;
60032;SDS011;45905;50.570;10.428;2023-02-28T09:34:08;1.13;;;0.70;;
60032;SDS011;45905;50.570;10.428;2023-02-28T09:36:35;1.10;;;0.93;;
60032;SDS011;45905;50.570;10.428;2023-02-28T09:39:12;0.87;;;0.87;;
60032;SDS011;45905;50.570;10.428;2023-02-28T09:41:43;2.30;;;2.10;;
60032;SDS011;45905;50.570;10.428;2023-02-28T09:44:23;1.03;;;0.30;;
60032;SDS011;45905;50.570;10.428;2023-02-28T09:50:15;1.07;;;0.87;;
60032;SDS011;45905;50.570;10.428;2023-02-28T09:53:01;0.50;;;0.30;;
60032;SDS011;45905;50.570;10.428;2023-02-28T09:55:39;1.60;;;1.30;;
60032;SDS011;45905;50.570;10.428;2023-02-28T10:06:50;3.90;;;1.73;;
60032;SDS011;45905;50.570;10.428;2023-02-28T10:09:26;1.43;;;1.30;;
60032;SDS011;45905;50.570;10.428;2023-02-28T10:12:03;1.57;;;1.10;;
60032;SDS011;45905;50.570;10.428;2023-02-28T10:14:33;2.10;;;2.00;;
60032;SDS011;45905;50.570;10.428;2023-02-28T10:17:13;5.30;;;1.80;;
60032;SDS011;45905;50.570;10.428;2023-02-28T10:19:56;1.07;;;0.70;;
60032;SDS011;45905;50.570;10.428;2023-02-28T10:23:00;0.80;;;0.80;;
60032;SDS011;45905;50.570;10.428;2023-02-28T10:25:53;2.17;;;2.03;;
60032;SDS011;45905;50.570;10.428;2023-02-28T10:28:26;1.87;;;1.77;;
60032;SDS011;45905;50.570;10.428;2023-02-28T10:30:57;1.90;;;0.70;;
60032;SDS011;45905;50.570;10.428;2023-02-28T10:33:28;2.63;;;1.33;;
60032;SDS011;45905;50.570;10.428;2023-02-28T10:36:01;2.10;;;1.53;;
60032;SDS011;45905;50.570;10.428;2023-02-28T10:38:34;0.67;;;0.60;;
60032;SDS011;45905;50.570;10.428;2023-02-28T10:41:06;2.73;;;2.30;;
60032;SDS011;45905;50.570;10.428;2023-02-28T10:43:37;3.33;;;1.27;;
60032;SDS011;45905;50.570;10.428;2023-02-28T10:48:45;3.23;;;2.27;;
60032;SDS011;45905;50.570;10.428;2023-02-28T10:51:26;7.73;;;1.50;;
60032;SDS011;45905;50.570;10.428;2023-02-28T10:54:04;1.23;;;1.13;;
60032;SDS011;45905;50.570;10.428;2023-02-28T10:56:32;3.57;;;1.30;;
60032;SDS011;45905;50.570;10.428;2023-02-28T10:59:01;1.90;;;1.27;;
60032;SDS011;45905;50.570;10.428;2023-02-28T11:01:43;1.20;;;0.90;;
60032;SDS011;45905;50.570;10.428;2023-02-28T11:07:23;1.57;;;1.43;;
60032;SDS011;45905;50.570;10.428;2023-02-28T11:09:57;2.83;;;2.33;;
60032;SDS011;45905;50.570;10.428;2023-02-28T11:12:26;1.90;;;1.80;;
60032;SDS011;45905;50.570;10.428;2023-02-28T11:15:29;1.73;;;1.63;;
60032;SDS011;45905;50.570;10.428;2023-02-28T11:20:37;3.73;;;2.10;;
60032;SDS011;45905;50.570;10.428;2023-02-28T11:23:10;0.97;;;0.87;;
60032;SDS011;45905;50.570;10.428;2023-02-28T11:25:40;1.93;;;1.70;;
60032;SDS011;45905;50.570;10.428;2023-02-28T11:28:26;4.30;;;2.60;;
60032;SDS011;45905;50.570;10.428;2023-02-28T11:33:46;3.17;;;1.83;;
60032;SDS011;45905;50.570;10.428;2023-02-28T11:36:19;1.50;;;1.40;;
60032;SDS011;45905;50.570;10.428;2023-02-28T11:38:54;2.50;;;2.30;;
60032;SDS011;45905;50.570;10.428;2023-02-28T11:44:35;1.70;;;1.27;;
60032;SDS011;45905;50.570;10.428;2023-02-28T11:47:59;1.70;;;1.60;;
60032;SDS011;45905;50.570;10.428;2023-02-28T11:51:32;6.63;;;1.30;;
60032;SDS011;45905;50.570;10.428;2023-02-28T11:53:55;5.57;;;1.90;;
60032;SDS011;45905;50.570;10.428;2023-02-28T11:56:39;1.27;;;1.17;;
60032;SDS011;45905;50.570;10.428;2023-02-28T12:10:23;1.40;;;1.30;;
60032;SDS011;45905;50.570;10.428;2023-02-28T12:25:19;1.33;;;1.23;;
60032;SDS011;45905;50.570;10.428;2023-02-28T12:28:09;2.37;;;1.80;;
60032;SDS011;45905;50.570;10.428;2023-02-28T12:30:44;2.20;;;2.10;;
60032;SDS011;45905;50.570;10.428;2023-02-28T12:33:32;2.30;;;1.00;;
60032;SDS011;45905;50.570;10.428;2023-02-28T12:36:08;2.93;;;1.73;;
60032;SDS011;45905;50.570;10.428;2023-02-28T12:44:12;3.53;;;2.43;;
60032;SDS011;45905;50.570;10.428;2023-02-28T12:46:51;3.03;;;1.53;;
60032;SDS011;45905;50.570;10.428;2023-02-28T12:52:13;2.03;;;1.93;;
60032;SDS011;45905;50.570;10.428;2023-02-28T12:54:56;1.17;;;0.87;;
60032;SDS011;45905;50.570;10.428;2023-02-28T12:57:38;1.40;;;1.10;;
60032;SDS011;45905;50.570;10.428;2023-02-28T13:00:23;2.70;;;1.80;;
60032;SDS011;45905;50.570;10.428;2023-02-28T13:03:04;3.53;;;2.27;;
60032;SDS011;45905;50.570;10.428;2023-02-28T13:08:48;7.60;;;1.83;;
60032;SDS011;45905;50.570;10.428;2023-02-28T13:11:39;4.93;;;2.00;;
60032;SDS011;45905;50.570;10.428;2023-02-28T13:14:18;2.67;;;1.77;;
60032;SDS011;45905;50.570;10.428;2023-02-28T13:19:44;1.80;;;1.40;;
60032;SDS011;45905;50.570;10.428;2023-02-28T13:25:02;1.20;;;1.10;;
60032;SDS011;45905;50.570;10.428;2023-02-28T13:27:50;6.23;;;1.93;;
60032;SDS011;45905;50.570;10.428;2023-02-28T13:31:09;10.33;;;2.93;;
60032;SDS011;45905;50.570;10.428;2023-02-28T13:33:23;2.30;;;1.73;;
60032;SDS011;45905;50.570;10.428;2023-02-28T13:36:40;1.67;;;1.57;;
60032;SDS011;45905;50.570;10.428;2023-02-28T13:46:38;3.33;;;2.27;;
60032;SDS011;45905;50.570;10.428;2023-02-28T13:49:25;2.50;;;1.83;;
60032;SDS011;45905;50.570;10.428;2023-02-28T14:00:15;3.30;;;3.00;;
60032;SDS011;45905;50.570;10.428;2023-02-28T14:06:33;2.17;;;1.80;;
60032;SDS011;45905;50.570;10.428;2023-02-28T14:09:25;5.03;;;1.83;;
60032;SDS011;45905;50.570;10.428;2023-02-28T14:18:00;2.33;;;2.10;;
60032;SDS011;45905;50.570;10.428;2023-02-28T14:20:31;3.30;;;2.63;;
60032;SDS011;45905;50.570;10.428;2023-02-28T14:23:10;9.60;;;2.83;;
60032;SDS011;45905;50.570;10.428;2023-02-28T14:25:54;3.70;;;3.17;;
60032;SDS011;45905;50.570;10.428;2023-02-28T14:31:09;2.30;;;2.10;;
60032;SDS011;45905;50.570;10.428;2023-02-28T14:36:36;4.53;;;2.80;;
60032;SDS011;45905;50.570;10.428;2023-02-28T14:41:41;2.63;;;1.87;;
60032;SDS011;45905;50.570;10.428;2023-02-28T14:44:17;4.33;;;2.90;;
60032;SDS011;45905;50.570;10.428;2023-02-28T14:46:52;5.10;;;2.60;;
60032;SDS011;45905;50.570;10.428;2023-02-28T14:57:31;5.97;;;3.40;;
60032;SDS011;45905;50.570;10.428;2023-02-28T15:00:11;6.13;;;2.87;;
60032;SDS011;45905;50.570;10.428;2023-02-28T15:02:47;7.00;;;2.67;;
60032;SDS011;45905;50.570;10.428;2023-02-28T15:07:44;3.30;;;3.00;;
60032;SDS011;45905;50.570;10.428;2023-02-28T15:10:18;7.13;;;3.90;;
60032;SDS011;45905;50.570;10.428;2023-02-28T15:12:55;3.87;;;2.60;;
60032;SDS011;45905;50.570;10.428;2023-02-28T15:15:27;2.87;;;1.97;;
60032;SDS011;45905;50.570;10.428;2023-02-28T15:19:11;4.13;;;2.50;;
60032;SDS011;45905;50.570;10.428;2023-02-28T15:21:23;2.10;;;1.90;;
60032;SDS011;45905;50.570;10.428;2023-02-28T15:23:55;6.70;;;2.50;;
60032;SDS011;45905;50.570;10.428;2023-02-28T15:26:27;6.27;;;3.00;;
60032;SDS011;45905;50.570;10.428;2023-02-28T15:29:15;2.30;;;2.10;;
60032;SDS011;45905;50.570;10.428;2023-02-28T15:31:50;4.77;;;3.70;;
60032;SDS011;45905;50.570;10.428;2023-02-28T15:34:38;16.70;;;3.27;;
60032;SDS011;45905;50.570;10.428;2023-02-28T15:43:16;5.97;;;3.43;;
60032;SDS011;45905;50.570;10.428;2023-02-28T15:46:07;1.70;;;1.57;;
60032;SDS011;45905;50.570;10.428;2023-02-28T15:48:52;6.20;;;2.73;;
60032;SDS011;45905;50.570;10.428;2023-02-28T15:51:33;2.47;;;2.20;;
60032;SDS011;45905;50.570;10.428;2023-02-28T15:54:05;1.63;;;1.20;;
60032;SDS011;45905;50.570;10.428;2023-02-28T15:56:46;2.97;;;1.87;;
60032;SDS011;45905;50.570;10.428;2023-02-28T15:59:20;2.43;;;1.90;;
60032;SDS011;45905;50.570;10.428;2023-02-28T16:04:37;3.37;;;3.07;;
60032;SDS011;45905;50.570;10.428;2023-02-28T16:07:24;2.70;;;1.87;;
60032;SDS011;45905;50.570;10.428;2023-02-28T16:09:52;3.43;;;2.93;;
60032;SDS011;45905;50.570;10.428;2023-02-28T16:12:21;2.20;;;1.70;;
60032;SDS011;45905;50.570;10.428;2023-02-28T16:14:58;2.90;;;1.67;;
60032;SDS011;45905;50.570;10.428;2023-02-28T16:17:33;5.80;;;3.40;;
60032;SDS011;45905;50.570;10.428;2023-02-28T16:20:13;5.53;;;2.10;;
60032;SDS011;45905;50.570;10.428;2023-02-28T16:22:43;5.33;;;3.47;;
60032;SDS011;45905;50.570;10.428;2023-02-28T16:25:15;5.30;;;2.80;;
60032;SDS011;45905;50.570;10.428;2023-02-28T16:27:50;6.33;;;3.90;;
60032;SDS011;45905;50.570;10.428;2023-02-28T16:30:21;3.53;;;1.87;;
60032;SDS011;45905;50.570;10.428;2023-02-28T16:32:54;5.90;;;3.53;;
60032;SDS011;45905;50.570;10.428;2023-02-28T16:35:22;3.50;;;2.87;;
60032;SDS011;45905;50.570;10.428;2023-02-28T16:37:51;1.93;;;1.80;;
60032;SDS011;45905;50.570;10.428;2023-02-28T16:40:22;3.57;;;1.73;;
60032;SDS011;45905;50.570;10.428;2023-02-28T16:42:53;3.30;;;1.80;;
60032;SDS011;45905;50.570;10.428;2023-02-28T16:45:26;5.57;;;3.70;;
60032;SDS011;45905;50.570;10.428;2023-02-28T16:47:55;4.63;;;2.70;;
60032;SDS011;45905;50.570;10.428;2023-02-28T16:50:24;4.03;;;3.23;;
60032;SDS011;45905;50.570;10.428;2023-02-28T16:52:56;6.30;;;3.30;;
60032;SDS011;45905;50.570;10.428;2023-02-28T16:55:24;3.90;;;2.47;;
60032;SDS011;45905;50.570;10.428;2023-02-28T16:57:53;1.60;;;1.10;;
60032;SDS011;45905;50.570;10.428;2023-02-28T17:00:27;3.83;;;2.97;;
60032;SDS011;45905;50.570;10.428;2023-02-28T17:02:58;4.70;;;2.90;;
60032;SDS011;45905;50.570;10.428;2023-02-28T17:05:26;6.37;;;3.70;;
60032;SDS011;45905;50.570;10.428;2023-02-28T17:08:02;6.00;;;3.00;;
60032;SDS011;45905;50.570;10.428;2023-02-28T17:10:29;2.67;;;2.47;;
60032;SDS011;45905;50.570;10.428;2023-02-28T17:12:56;2.03;;;1.40;;
60032;SDS011;45905;50.570;10.428;2023-02-28T17:15:40;4.13;;;2.63;;
60032;SDS011;45905;50.570;10.428;2023-02-28T17:18:08;2.77;;;1.90;;
60032;SDS011;45905;50.570;10.428;2023-02-28T17:20:42;2.80;;;2.10;;
60032;SDS011;45905;50.570;10.428;2023-02-28T17:23:09;4.70;;;2.80;;
60032;SDS011;45905;50.570;10.428;2023-02-28T17:25:36;3.50;;;2.70;;
60032;SDS011;45905;50.570;10.428;2023-02-28T17:28:03;3.43;;;2.77;;
60032;SDS011;45905;50.570;10.428;2023-02-28T17:30:32;3.80;;;2.70;;
60032;SDS011;45905;50.570;10.428;2023-02-28T17:33:01;1.97;;;1.77;;
60032;SDS011;45905;50.570;10.428;2023-02-28T17:35:28;4.57;;;4.17;;
60032;SDS011;45905;50.570;10.428;2023-02-28T17:37:55;4.37;;;2.07;;
60032;SDS011;45905;50.570;10.428;2023-02-28T17:40:23;5.60;;;2.43;;
60032;SDS011;45905;50.570;10.428;2023-02-28T17:42:50;5.83;;;3.67;;
60032;SDS011;45905;50.570;10.428;2023-02-28T17:45:21;3.13;;;2.83;;